sensor_id;sensor_type;location;lat;lon;timestamp;pressure;altitude;pressure_sealevel;temperature;humidity
63819;BME280;49970;54.976;73.248;2023-02-18T00:01:52;101629.38;;;-14.67;73.11
63819;BME280;49970;54.976;73.248;2023-02-18T00:04:18;101620.09;;;-14.67;74.05
63819;BME280;49970;54.976;73.248;2023-02-18T00:06:44;101597.84;;;-14.71;73.39
63819;BME280;49970;54.976;73.248;2023-02-18T00:09:11;101605.53;;;-14.69;74.24
63819;BME280;49970;54.976;73.248;2023-02-18T00:11:37;101612.38;;;-14.68;73.37
63819;BME280;49970;54.976;73.248;2023-02-18T00:14:12;101611.72;;;-14.64;73.33
63819;BME280;49970;54.976;73.248;2023-02-18T00:16:39;101587.75;;;-14.69;73.91
63819;BME280;49970;54.976;73.248;2023-02-18T00:19:07;101577.72;;;-14.66;74.34
63819;BME280;49970;54.976;73.248;2023-02-18T00:21:35;101581.69;;;-14.71;73.38
63819;BME280;49970;54.976;73.248;2023-02-18T00:24:03;101594.66;;;-14.67;73.60
63819;BME280;49970;54.976;73.248;2023-02-18T00:26:30;101596.00;;;-14.73;74.08
63819;BME280;49970;54.976;73.248;2023-02-18T00:29:06;101597.34;;;-14.64;74.16
63819;BME280;49970;54.976;73.248;2023-02-18T00:31:35;101593.13;;;-14.63;74.57
63819;BME280;49970;54.976;73.248;2023-02-18T00:34:03;101602.59;;;-14.61;73.20
63819;BME280;49970;54.976;73.248;2023-02-18T00:36:38;101573.81;;;-14.60;74.61
63819;BME280;49970;54.976;73.248;2023-02-18T00:39:07;101592.59;;;-14.58;73.61
63819;BME280;49970;54.976;73.248;2023-02-18T00:41:34;101567.78;;;-14.62;73.67
63819;BME280;49970;54.976;73.248;2023-02-18T00:44:00;101562.19;;;-14.54;74.11
63819;BME280;49970;54.976;73.248;2023-02-18T00:46:27;101583.34;;;-14.55;74.57
63819;BME280;49970;54.976;73.248;2023-02-18T00:48:54;101546.00;;;-14.57;74.02
63819;BME280;49970;54.976;73.248;2023-02-18T00:51:22;101556.16;;;-14.57;74.02
63819;BME280;49970;54.976;73.248;2023-02-18T00:53:59;101571.44;;;-14.57;73.58
63819;BME280;49970;54.976;73.248;2023-02-18T00:56:25;101551.94;;;-14.56;74.38
63819;BME280;49970;54.976;73.248;2023-02-18T00:58:52;101554.56;;;-14.54;74.81
63819;BME280;49970;54.976;73.248;2023-02-18T01:01:18;101516.94;;;-14.62;74.58
63819;BME280;49970;54.976;73.248;2023-02-18T01:03:55;101536.91;;;-14.51;74.47
63819;BME280;49970;54.976;73.248;2023-02-18T01:06:21;101524.13;;;-14.53;73.25
63819;BME280;49970;54.976;73.248;2023-02-18T01:08:47;101493.44;;;-14.56;74.41
63819;BME280;49970;54.976;73.248;2023-02-18T01:11:15;101496.97;;;-14.54;74.26
63819;BME280;49970;54.976;73.248;2023-02-18T01:13:41;101519.03;;;-14.53;74.62
63819;BME280;49970;54.976;73.248;2023-02-18T01:16:08;101498.75;;;-14.51;75.05
63819;BME280;49970;54.976;73.248;2023-02-18T01:18:34;101492.97;;;-14.49;74.55
63819;BME280;49970;54.976;73.248;2023-02-18T01:21:06;101495.63;;;-14.46;74.84
63819;BME280;49970;54.976;73.248;2023-02-18T01:23:40;101479.38;;;-14.49;74.85
63819;BME280;49970;54.976;73.248;2023-02-18T01:26:07;101486.19;;;-14.48;73.87
63819;BME280;49970;54.976;73.248;2023-02-18T01:28:33;101485.34;;;-14.49;73.45
63819;BME280;49970;54.976;73.248;2023-02-18T01:31:04;101476.03;;;-14.48;74.96
63819;BME280;49970;54.976;73.248;2023-02-18T01:33:37;101466.50;;;-14.52;74.20
63819;BME280;49970;54.976;73.248;2023-02-18T01:36:13;101462.22;;;-14.53;74.28
63819;BME280;49970;54.976;73.248;2023-02-18T01:38:39;101463.91;;;-14.54;74.82
63819;BME280;49970;54.976;73.248;2023-02-18T01:41:16;101463.09;;;-14.53;73.41
63819;BME280;49970;54.976;73.248;2023-02-18T01:43:42;101466.50;;;-14.52;74.38
63819;BME280;49970;54.976;73.248;2023-02-18T01:46:18;101488.69;;;-14.50;73.45
63819;BME280;49970;54.976;73.248;2023-02-18T01:48:50;101479.28;;;-14.51;75.08
63819;BME280;49970;54.976;73.248;2023-02-18T01:51:55;101471.59;;;-14.52;74.76
63819;BME280;49970;54.976;73.248;2023-02-18T01:54:38;101471.53;;;-14.54;74.15
63819;BME280;49970;54.976;73.248;2023-02-18T01:57:09;101486.78;;;-14.54;73.72
63819;BME280;49970;54.976;73.248;2023-02-18T01:59:55;101473.09;;;-14.56;73.73
63819;BME280;49970;54.976;73.248;2023-02-18T02:02:28;101492.00;;;-14.51;73.73
63819;BME280;49970;54.976;73.248;2023-02-18T02:04:54;101485.25;;;-14.50;74.68
63819;BME280;49970;54.976;73.248;2023-02-18T02:07:23;101501.47;;;-14.48;73.42
63819;BME280;49970;54.976;73.248;2023-02-18T02:09:56;101509.91;;;-14.49;74.04
63819;BME280;49970;54.976;73.248;2023-02-18T02:12:35;101518.53;;;-14.46;73.61
63819;BME280;49970;54.976;73.248;2023-02-18T02:18:32;101510.25;;;-14.42;75.20
63819;BME280;49970;54.976;73.248;2023-02-18T02:24:23;101512.91;;;-14.39;74.19
63819;BME280;49970;54.976;73.248;2023-02-18T02:35:43;101514.38;;;-14.26;75.55
63819;BME280;49970;54.976;73.248;2023-02-18T02:38:39;101517.88;;;-14.24;74.63
63819;BME280;49970;54.976;73.248;2023-02-18T02:41:31;101525.53;;;-14.24;73.77
63819;BME280;49970;54.976;73.248;2023-02-18T02:46:51;101509.44;;;-14.23;75.00
63819;BME280;49970;54.976;73.248;2023-02-18T02:52:25;101505.38;;;-14.19;75.52
63819;BME280;49970;54.976;73.248;2023-02-18T02:54:55;101496.88;;;-14.20;74.96
63819;BME280;49970;54.976;73.248;2023-02-18T03:00:03;101499.69;;;-14.14;73.84
63819;BME280;49970;54.976;73.248;2023-02-18T03:11:28;101480.56;;;-14.06;75.05
63819;BME280;49970;54.976;73.248;2023-02-18T03:14:21;101479.84;;;-14.03;75.53
63819;BME280;49970;54.976;73.248;2023-02-18T03:17:02;101476.44;;;-14.03;75.07
63819;BME280;49970;54.976;73.248;2023-02-18T03:19:55;101468.50;;;-14.10;74.42
63819;BME280;49970;54.976;73.248;2023-02-18T03:22:29;101475.63;;;-14.02;75.22
63819;BME280;49970;54.976;73.248;2023-02-18T03:25:09;101463.72;;;-14.03;75.29
63819;BME280;49970;54.976;73.248;2023-02-18T03:31:06;101458.03;;;-13.98;74.67
63819;BME280;49970;54.976;73.248;2023-02-18T03:33:41;101460.72;;;-13.95;74.34
63819;BME280;49970;54.976;73.248;2023-02-18T03:36:16;101454.00;;;-13.93;74.94
63819;BME280;49970;54.976;73.248;2023-02-18T03:38:55;101447.31;;;-13.91;74.71
63819;BME280;49970;54.976;73.248;2023-02-18T03:41:34;101446.47;;;-13.91;74.97
63819;BME280;49970;54.976;73.248;2023-02-18T03:44:03;101446.56;;;-13.88;74.81
63819;BME280;49970;54.976;73.248;2023-02-18T03:46:41;101433.94;;;-13.87;74.71
63819;BME280;49970;54.976;73.248;2023-02-18T03:49:20;101431.44;;;-13.85;74.15
63819;BME280;49970;54.976;73.248;2023-02-18T03:51:48;101420.25;;;-13.89;74.64
63819;BME280;49970;54.976;73.248;2023-02-18T03:54:14;101432.47;;;-13.82;74.59
63819;BME280;49970;54.976;73.248;2023-02-18T03:56:42;101424.75;;;-13.83;74.84
63819;BME280;49970;54.976;73.248;2023-02-18T03:59:13;101434.34;;;-13.77;75.89
63819;BME280;49970;54.976;73.248;2023-02-18T04:01:40;101421.66;;;-13.76;75.30
63819;BME280;49970;54.976;73.248;2023-02-18T04:04:06;101420.06;;;-13.74;75.65
63819;BME280;49970;54.976;73.248;2023-02-18T04:06:34;101410.56;;;-13.78;74.57
63819;BME280;49970;54.976;73.248;2023-02-18T04:09:00;101417.63;;;-13.71;75.37
63819;BME280;49970;54.976;73.248;2023-02-18T04:11:37;101403.16;;;-13.72;75.13
63819;BME280;49970;54.976;73.248;2023-02-18T04:14:14;101412.88;;;-13.63;76.03
63819;BME280;49970;54.976;73.248;2023-02-18T04:16:41;101406.25;;;-13.60;75.38
63819;BME280;49970;54.976;73.248;2023-02-18T04:19:07;101408.94;;;-13.57;74.73
63819;BME280;49970;54.976;73.248;2023-02-18T04:21:39;101412.41;;;-13.54;75.34
63819;BME280;49970;54.976;73.248;2023-02-18T04:24:11;101409.09;;;-13.53;74.21
63819;BME280;49970;54.976;73.248;2023-02-18T04:26:38;101415.97;;;-13.51;74.21
63819;BME280;49970;54.976;73.248;2023-02-18T04:29:13;101411.06;;;-13.46;75.97
63819;BME280;49970;54.976;73.248;2023-02-18T04:31:40;101413.78;;;-13.43;75.97
63819;BME280;49970;54.976;73.248;2023-02-18T04:34:06;101408.94;;;-13.37;75.18
63819;BME280;49970;54.976;73.248;2023-02-18T04:36:33;101405.59;;;-13.36;75.16
63819;BME280;49970;54.976;73.248;2023-02-18T04:38:59;101397.19;;;-13.34;76.02
63819;BME280;49970;54.976;73.248;2023-02-18T04:41:25;101379.44;;;-13.32;74.63
63819;BME280;49970;54.976;73.248;2023-02-18T04:43:51;101388.00;;;-13.30;74.46
63819;BME280;49970;54.976;73.248;2023-02-18T04:46:18;101383.03;;;-13.27;74.80
63819;BME280;49970;54.976;73.248;2023-02-18T04:48:49;101373.75;;;-13.25;74.79
63819;BME280;49970;54.976;73.248;2023-02-18T04:51:15;101367.06;;;-13.23;75.37
63819;BME280;49970;54.976;73.248;2023-02-18T04:53:41;101364.53;;;-13.21;74.26
63819;BME280;49970;54.976;73.248;2023-02-18T04:56:08;101363.84;;;-13.17;74.56
63819;BME280;49970;54.976;73.248;2023-02-18T04:58:44;101352.94;;;-13.15;74.55
63819;BME280;49970;54.976;73.248;2023-02-18T05:01:10;101357.34;;;-13.11;75.28
63819;BME280;49970;54.976;73.248;2023-02-18T05:03:47;101364.38;;;-13.05;75.21
63819;BME280;49970;54.976;73.248;2023-02-18T05:06:13;101368.88;;;-12.99;75.13
63819;BME280;49970;54.976;73.248;2023-02-18T05:08:39;101376.63;;;-12.96;74.48
63819;BME280;49970;54.976;73.248;2023-02-18T05:11:08;101372.47;;;-12.94;75.23
63819;BME280;49970;54.976;73.248;2023-02-18T05:13:35;101372.59;;;-12.91;75.11
63819;BME280;49970;54.976;73.248;2023-02-18T05:16:01;101374.47;;;-12.87;74.35
63819;BME280;49970;54.976;73.248;2023-02-18T05:18:27;101370.97;;;-12.89;74.28
63819;BME280;49970;54.976;73.248;2023-02-18T05:20:54;101352.97;;;-12.92;75.28
63819;BME280;49970;54.976;73.248;2023-02-18T05:23:24;101362.44;;;-12.90;74.92
63819;BME280;49970;54.976;73.248;2023-02-18T05:25:51;101355.78;;;-12.86;75.04
63819;BME280;49970;54.976;73.248;2023-02-18T05:28:17;101359.34;;;-12.83;74.96
63819;BME280;49970;54.976;73.248;2023-02-18T05:30:43;101345.81;;;-12.80;74.39
63819;BME280;49970;54.976;73.248;2023-02-18T05:33:09;101340.72;;;-12.80;74.81
63819;BME280;49970;54.976;73.248;2023-02-18T05:35:36;101337.44;;;-12.77;75.00
63819;BME280;49970;54.976;73.248;2023-02-18T05:38:02;101336.75;;;-12.73;74.19
63819;BME280;49970;54.976;73.248;2023-02-18T05:40:28;101341.09;;;-12.71;74.25
63819;BME280;49970;54.976;73.248;2023-02-18T05:42:54;101341.22;;;-12.68;74.06
63819;BME280;49970;54.976;73.248;2023-02-18T05:45:31;101325.84;;;-12.69;73.85
63819;BME280;49970;54.976;73.248;2023-02-18T05:47:57;101336.19;;;-12.66;73.62
63819;BME280;49970;54.976;73.248;2023-02-18T05:50:34;101333.00;;;-12.61;74.42
63819;BME280;49970;54.976;73.248;2023-02-18T05:53:06;101340.94;;;-12.53;74.20
63819;BME280;49970;54.976;73.248;2023-02-18T05:55:38;101331.09;;;-12.44;73.96
63819;BME280;49970;54.976;73.248;2023-02-18T05:58:05;101334.69;;;-12.39;74.31
63819;BME280;49970;54.976;73.248;2023-02-18T06:00:31;101339.94;;;-12.34;73.88
63819;BME280;49970;54.976;73.248;2023-02-18T06:02:58;101341.81;;;-12.30;74.59
63819;BME280;49970;54.976;73.248;2023-02-18T06:05:24;101337.66;;;-12.28;74.31
63819;BME280;49970;54.976;73.248;2023-02-18T06:08:01;101330.78;;;-12.29;74.25
63819;BME280;49970;54.976;73.248;2023-02-18T06:10:27;101346.16;;;-12.27;74.71
63819;BME280;49970;54.976;73.248;2023-02-18T06:12:59;101322.94;;;-12.34;74.25
63819;BME280;49970;54.976;73.248;2023-02-18T06:15:37;101323.81;;;-12.33;73.85
63819;BME280;49970;54.976;73.248;2023-02-18T06:18:04;101323.81;;;-12.33;74.31
63819;BME280;49970;54.976;73.248;2023-02-18T06:20:30;101318.84;;;-12.30;73.86
63819;BME280;49970;54.976;73.248;2023-02-18T06:23:01;101320.69;;;-12.26;73.52
63819;BME280;49970;54.976;73.248;2023-02-18T06:25:38;101288.84;;;-12.36;73.30
63819;BME280;49970;54.976;73.248;2023-02-18T06:28:05;101304.50;;;-12.26;73.91
63819;BME280;49970;54.976;73.248;2023-02-18T06:30:31;101295.16;;;-12.26;73.71
63819;BME280;49970;54.976;73.248;2023-02-18T06:32:57;101295.25;;;-12.24;73.78
63819;BME280;49970;54.976;73.248;2023-02-18T06:35:29;101299.44;;;-12.25;74.02
63819;BME280;49970;54.976;73.248;2023-02-18T06:37:55;101301.13;;;-12.25;74.10
63819;BME280;49970;54.976;73.248;2023-02-18T06:40:31;101288.50;;;-12.22;73.69
63819;BME280;49970;54.976;73.248;2023-02-18T06:42:58;101285.97;;;-12.21;73.59
63819;BME280;49970;54.976;73.248;2023-02-18T06:45:27;101282.72;;;-12.17;73.86
63819;BME280;49970;54.976;73.248;2023-02-18T06:47:53;101292.22;;;-12.13;73.80
63819;BME280;49970;54.976;73.248;2023-02-18T06:50:20;101285.44;;;-12.12;73.41
63819;BME280;49970;54.976;73.248;2023-02-18T06:52:46;101282.13;;;-12.10;73.62
63819;BME280;49970;54.976;73.248;2023-02-18T06:55:12;101285.72;;;-12.05;73.85
63819;BME280;49970;54.976;73.248;2023-02-18T06:57:38;101267.97;;;-12.01;73.36
63819;BME280;49970;54.976;73.248;2023-02-18T07:00:09;101262.16;;;-11.97;73.37
63819;BME280;49970;54.976;73.248;2023-02-18T07:02:36;101261.25;;;-11.99;73.58
63819;BME280;49970;54.976;73.248;2023-02-18T07:05:02;101249.22;;;-12.02;73.92
63819;BME280;49970;54.976;73.248;2023-02-18T07:07:38;101245.09;;;-11.98;73.94
63819;BME280;49970;54.976;73.248;2023-02-18T07:10:15;101231.38;;;-12.00;73.36
63819;BME280;49970;54.976;73.248;2023-02-18T07:12:41;101234.66;;;-12.05;73.46
63819;BME280;49970;54.976;73.248;2023-02-18T07:15:08;101231.19;;;-12.07;73.24
63819;BME280;49970;54.976;73.248;2023-02-18T07:17:34;101226.19;;;-12.03;73.24
63819;BME280;49970;54.976;73.248;2023-02-18T07:20:00;101233.22;;;-11.96;73.73
63819;BME280;49970;54.976;73.248;2023-02-18T07:22:27;101224.03;;;-11.91;73.25
63819;BME280;49970;54.976;73.248;2023-02-18T07:24:53;101214.72;;;-11.91;73.29
63819;BME280;49970;54.976;73.248;2023-02-18T07:27:20;101218.13;;;-11.90;72.95
63819;BME280;49970;54.976;73.248;2023-02-18T07:29:47;101213.22;;;-11.84;73.65
63819;BME280;49970;54.976;73.248;2023-02-18T07:32:16;101224.50;;;-11.77;73.52
63819;BME280;49970;54.976;73.248;2023-02-18T07:34:43;101219.47;;;-11.74;73.31
63819;BME280;49970;54.976;73.248;2023-02-18T07:37:20;101212.84;;;-11.69;72.75
63819;BME280;49970;54.976;73.248;2023-02-18T07:39:46;101200.31;;;-11.62;73.27
63819;BME280;49970;54.976;73.248;2023-02-18T07:42:13;101204.91;;;-11.51;73.13
63819;BME280;49970;54.976;73.248;2023-02-18T07:44:40;101207.56;;;-11.48;73.38
63819;BME280;49970;54.976;73.248;2023-02-18T07:47:08;101201.19;;;-11.34;73.17
63819;BME280;49970;54.976;73.248;2023-02-18T07:49:35;101207.38;;;-11.27;73.14
63819;BME280;49970;54.976;73.248;2023-02-18T07:52:21;101201.63;;;-11.20;73.22
63819;BME280;49970;54.976;73.248;2023-02-18T07:56:17;101212.00;;;-11.16;73.34
63819;BME280;49970;54.976;73.248;2023-02-18T08:00:08;101202.44;;;-11.21;72.54
63819;BME280;49970;54.976;73.248;2023-02-18T08:07:48;101193.94;;;-11.20;72.55
63819;BME280;49970;54.976;73.248;2023-02-18T08:11:41;101191.50;;;-11.17;72.49
63819;BME280;49970;54.976;73.248;2023-02-18T08:23:10;101199.06;;;-10.93;72.60
63819;BME280;49970;54.976;73.248;2023-02-18T08:27:02;101190.44;;;-10.95;73.04
63819;BME280;49970;54.976;73.248;2023-02-18T08:30:33;101190.28;;;-11.01;72.56
63819;BME280;49970;54.976;73.248;2023-02-18T08:32:59;101183.47;;;-11.01;72.32
63819;BME280;49970;54.976;73.248;2023-02-18T08:35:36;101195.44;;;-11.00;72.68
63819;BME280;49970;54.976;73.248;2023-02-18T08:38:02;101197.94;;;-11.01;72.56
63819;BME280;49970;54.976;73.248;2023-02-18T08:40:28;101186.78;;;-11.04;72.61
63819;BME280;49970;54.976;73.248;2023-02-18T08:42:55;101191.09;;;-11.02;72.75
63819;BME280;49970;54.976;73.248;2023-02-18T08:45:21;101183.50;;;-10.99;72.92
63819;BME280;49970;54.976;73.248;2023-02-18T08:47:47;101182.72;;;-10.97;72.83
63819;BME280;49970;54.976;73.248;2023-02-18T08:50:14;101187.00;;;-10.97;73.01
63819;BME280;49970;54.976;73.248;2023-02-18T08:52:40;101187.03;;;-10.96;72.72
63819;BME280;49970;54.976;73.248;2023-02-18T08:55:09;101180.31;;;-10.92;73.00
63819;BME280;49970;54.976;73.248;2023-02-18T08:57:45;101186.34;;;-10.90;72.68
63819;BME280;49970;54.976;73.248;2023-02-18T09:00:16;101179.59;;;-10.87;73.00
63819;BME280;49970;54.976;73.248;2023-02-18T09:02:42;101183.88;;;-10.87;72.32
63819;BME280;49970;54.976;73.248;2023-02-18T09:05:09;101184.69;;;-10.88;72.75
63819;BME280;49970;54.976;73.248;2023-02-18T09:07:36;101182.97;;;-10.89;72.04
63819;BME280;49970;54.976;73.248;2023-02-18T09:10:03;101189.81;;;-10.88;72.28
63819;BME280;49970;54.976;73.248;2023-02-18T09:12:29;101180.44;;;-10.88;72.95
63819;BME280;49970;54.976;73.248;2023-02-18T09:14:55;101192.50;;;-10.84;72.64
63819;BME280;49970;54.976;73.248;2023-02-18T09:17:26;101190.81;;;-10.83;73.65
63819;BME280;49970;54.976;73.248;2023-02-18T09:19:58;101184.06;;;-10.81;72.60
63819;BME280;49970;54.976;73.248;2023-02-18T09:22:24;101185.78;;;-10.80;72.99
63819;BME280;49970;54.976;73.248;2023-02-18T09:24:56;101177.25;;;-10.81;72.89
63819;BME280;49970;54.976;73.248;2023-02-18T09:27:22;101164.47;;;-10.81;73.38
63819;BME280;49970;54.976;73.248;2023-02-18T09:29:54;101171.16;;;-10.84;73.00
63819;BME280;49970;54.976;73.248;2023-02-18T09:32:29;101170.22;;;-10.88;72.81
63819;BME280;49970;54.976;73.248;2023-02-18T09:34:55;101165.88;;;-10.90;73.59
63819;BME280;49970;54.976;73.248;2023-02-18T09:37:22;101170.91;;;-10.93;73.51
63819;BME280;49970;54.976;73.248;2023-02-18T09:39:56;101160.53;;;-10.98;72.48
63819;BME280;49970;54.976;73.248;2023-02-18T09:42:30;101164.78;;;-10.98;72.88
63819;BME280;49970;54.976;73.248;2023-02-18T09:45:10;101163.00;;;-11.01;73.55
63819;BME280;49970;54.976;73.248;2023-02-18T09:47:43;101169.97;;;-10.95;73.00
63819;BME280;49970;54.976;73.248;2023-02-18T09:50:21;101173.34;;;-10.98;73.02
63819;BME280;49970;54.976;73.248;2023-02-18T09:52:49;101172.38;;;-11.01;73.56
63819;BME280;49970;54.976;73.248;2023-02-18T09:55:26;101176.63;;;-11.02;72.86
63819;BME280;49970;54.976;73.248;2023-02-18T09:57:59;101178.31;;;-11.02;72.89
63819;BME280;49970;54.976;73.248;2023-02-18T10:00:31;101171.50;;;-11.02;73.35
63819;BME280;49970;54.976;73.248;2023-02-18T10:03:15;101179.19;;;-11.02;73.09
63819;BME280;49970;54.976;73.248;2023-02-18T10:08:28;101166.25;;;-11.07;72.94
63819;BME280;49970;54.976;73.248;2023-02-18T10:10:55;101167.88;;;-11.09;73.20
63819;BME280;49970;54.976;73.248;2023-02-18T10:13:24;101170.41;;;-11.10;72.71
63819;BME280;49970;54.976;73.248;2023-02-18T10:15:51;101174.66;;;-11.11;73.00
63819;BME280;49970;54.976;73.248;2023-02-18T10:18:28;101175.56;;;-11.09;73.24
63819;BME280;49970;54.976;73.248;2023-02-18T10:26:36;101178.19;;;-11.07;72.93
63819;BME280;49970;54.976;73.248;2023-02-18T10:29:15;101179.63;;;-11.15;72.81
63819;BME280;49970;54.976;73.248;2023-02-18T10:31:47;101182.25;;;-11.12;73.51
63819;BME280;49970;54.976;73.248;2023-02-18T10:36:55;101187.38;;;-11.12;73.01
63819;BME280;49970;54.976;73.248;2023-02-18T10:42:38;101190.66;;;-11.16;73.18
63819;BME280;49970;54.976;73.248;2023-02-18T10:45:30;101191.34;;;-11.22;73.36
63819;BME280;49970;54.976;73.248;2023-02-18T10:50:52;101187.69;;;-11.30;73.19
63819;BME280;49970;54.976;73.248;2023-02-18T10:53:32;101192.78;;;-11.30;73.59
63819;BME280;49970;54.976;73.248;2023-02-18T10:55:59;101191.06;;;-11.31;73.71
63819;BME280;49970;54.976;73.248;2023-02-18T10:58:30;101184.94;;;-11.36;73.37
63819;BME280;49970;54.976;73.248;2023-02-18T11:01:14;101192.56;;;-11.38;73.53
63819;BME280;49970;54.976;73.248;2023-02-18T11:03:47;101191.75;;;-11.37;73.48
63819;BME280;49970;54.976;73.248;2023-02-18T11:06:30;101195.19;;;-11.36;73.56
63819;BME280;49970;54.976;73.248;2023-02-18T11:12:12;101195.09;;;-11.38;73.35
63819;BME280;49970;54.976;73.248;2023-02-18T11:14:45;101195.06;;;-11.39;73.61
63819;BME280;49970;54.976;73.248;2023-02-18T11:17:19;101189.84;;;-11.42;74.03
63819;BME280;49970;54.976;73.248;2023-02-18T11:20:00;101188.13;;;-11.43;73.85
63819;BME280;49970;54.976;73.248;2023-02-18T11:22:32;101189.59;;;-11.50;73.92
63819;BME280;49970;54.976;73.248;2023-02-18T11:25:19;101182.75;;;-11.51;74.19
63819;BME280;49970;54.976;73.248;2023-02-18T11:27:52;101185.28;;;-11.52;73.66
63819;BME280;49970;54.976;73.248;2023-02-18T11:30:29;101180.97;;;-11.54;74.05
63819;BME280;49970;54.976;73.248;2023-02-18T11:33:05;101192.88;;;-11.54;73.95
63819;BME280;49970;54.976;73.248;2023-02-18T11:35:56;101188.56;;;-11.57;73.98
63819;BME280;49970;54.976;73.248;2023-02-18T11:38:40;101183.38;;;-11.58;74.42
63819;BME280;49970;54.976;73.248;2023-02-18T11:41:13;101185.84;;;-11.61;74.01
63819;BME280;49970;54.976;73.248;2023-02-18T11:43:44;101180.38;;;-11.72;74.35
63819;BME280;49970;54.976;73.248;2023-02-18T11:46:20;101199.25;;;-11.68;74.21
63819;BME280;49970;54.976;73.248;2023-02-18T11:52:34;101189.47;;;-11.80;74.65
63819;BME280;49970;54.976;73.248;2023-02-18T11:55:22;101192.84;;;-11.83;74.78
63819;BME280;49970;54.976;73.248;2023-02-18T11:58:03;101185.00;;;-11.87;75.20
63819;BME280;49970;54.976;73.248;2023-02-18T12:00:44;101192.63;;;-11.89;75.29
63819;BME280;49970;54.976;73.248;2023-02-18T12:03:32;101185.66;;;-11.93;75.50
63819;BME280;49970;54.976;73.248;2023-02-18T12:06:22;101184.66;;;-11.98;76.16
63819;BME280;49970;54.976;73.248;2023-02-18T12:09:17;101191.44;;;-11.98;76.02
63819;BME280;49970;54.976;73.248;2023-02-18T12:12:00;101181.94;;;-12.02;76.05
63819;BME280;49970;54.976;73.248;2023-02-18T12:14:38;101189.50;;;-12.06;76.25
63819;BME280;49970;54.976;73.248;2023-02-18T12:29:52;101183.81;;;-12.22;76.11
63819;BME280;49970;54.976;73.248;2023-02-18T12:32:36;101174.31;;;-12.26;76.67
63819;BME280;49970;54.976;73.248;2023-02-18T12:35:51;101187.13;;;-12.25;77.07
63819;BME280;49970;54.976;73.248;2023-02-18T12:51:11;101190.50;;;-12.26;77.38
63819;BME280;49970;54.976;73.248;2023-02-18T12:53:54;101181.97;;;-12.26;77.23
63819;BME280;49970;54.976;73.248;2023-02-18T12:56:42;101191.34;;;-12.25;77.99
63819;BME280;49970;54.976;73.248;2023-02-18T13:08:15;101192.94;;;-12.29;77.69
63819;BME280;49970;54.976;73.248;2023-02-18T13:11:18;101195.56;;;-12.27;77.86
63819;BME280;49970;54.976;73.248;2023-02-18T13:14:19;101187.91;;;-12.27;77.92
63819;BME280;49970;54.976;73.248;2023-02-18T13:16:50;101186.91;;;-12.31;78.28
63819;BME280;49970;54.976;73.248;2023-02-18T13:19:25;101198.16;;;-12.26;78.69
63819;BME280;49970;54.976;73.248;2023-02-18T13:22:05;101195.47;;;-12.29;78.53
63819;BME280;49970;54.976;73.248;2023-02-18T13:24:37;101199.78;;;-12.28;78.56
63819;BME280;49970;54.976;73.248;2023-02-18T13:27:36;101192.13;;;-12.28;78.54
63819;BME280;49970;54.976;73.248;2023-02-18T13:30:18;101194.69;;;-12.28;78.49
63819;BME280;49970;54.976;73.248;2023-02-18T13:35:45;101196.25;;;-12.32;78.51
63819;BME280;49970;54.976;73.248;2023-02-18T13:41:03;101197.00;;;-12.34;78.37
63819;BME280;49970;54.976;73.248;2023-02-18T13:43:35;101193.47;;;-12.38;79.14
63819;BME280;49970;54.976;73.248;2023-02-18T13:46:18;101194.28;;;-12.39;79.13
63819;BME280;49970;54.976;73.248;2023-02-18T13:49:10;101193.38;;;-12.41;78.75
63819;BME280;49970;54.976;73.248;2023-02-18T13:52:40;101194.13;;;-12.43;79.23
63819;BME280;49970;54.976;73.248;2023-02-18T13:56:21;101199.22;;;-12.43;78.41
63819;BME280;49970;54.976;73.248;2023-02-18T13:59:11;101207.72;;;-12.44;78.44
63819;BME280;49970;54.976;73.248;2023-02-18T14:01:42;101200.81;;;-12.47;78.33
63819;BME280;49970;54.976;73.248;2023-02-18T14:28:55;101202.28;;;-12.53;79.22
63819;BME280;49970;54.976;73.248;2023-02-18T14:31:34;101204.84;;;-12.53;79.40
63819;BME280;49970;54.976;73.248;2023-02-18T14:39:51;101204.84;;;-12.53;79.05
63819;BME280;49970;54.976;73.248;2023-02-18T14:50:56;101192.25;;;-12.49;79.54
63819;BME280;49970;54.976;73.248;2023-02-18T14:53:29;101201.66;;;-12.46;79.00
63819;BME280;49970;54.976;73.248;2023-02-18T14:56:08;101198.22;;;-12.48;79.36
63819;BME280;49970;54.976;73.248;2023-02-18T14:58:45;101203.47;;;-12.44;79.91
63819;BME280;49970;54.976;73.248;2023-02-18T15:03:49;101217.94;;;-12.44;79.43
63819;BME280;49970;54.976;73.248;2023-02-18T15:09:00;101216.19;;;-12.45;79.03
63819;BME280;49970;54.976;73.248;2023-02-18T15:12:02;101208.47;;;-12.47;79.25
63819;BME280;49970;54.976;73.248;2023-02-18T15:14:36;101207.44;;;-12.52;79.03
63819;BME280;49970;54.976;73.248;2023-02-18T15:17:05;101209.03;;;-12.54;79.60
63819;BME280;49970;54.976;73.248;2023-02-18T15:19:39;101206.44;;;-12.56;78.72
63819;BME280;49970;54.976;73.248;2023-02-18T15:22:18;101199.50;;;-12.60;79.04
63819;BME280;49970;54.976;73.248;2023-02-18T15:24:47;101211.44;;;-12.59;79.56
63819;BME280;49970;54.976;73.248;2023-02-18T15:27:30;101201.13;;;-12.62;79.11
63819;BME280;49970;54.976;73.248;2023-02-18T15:30:38;101215.63;;;-12.61;79.28
63819;BME280;49970;54.976;73.248;2023-02-18T15:33:10;101209.56;;;-12.63;79.14
63819;BME280;49970;54.976;73.248;2023-02-18T15:35:40;101181.75;;;-12.79;79.29
63819;BME280;49970;54.976;73.248;2023-02-18T15:38:20;101209.53;;;-12.64;78.55
63819;BME280;49970;54.976;73.248;2023-02-18T15:40:49;101202.53;;;-12.70;79.21
63819;BME280;49970;54.976;73.248;2023-02-18T15:43:22;101211.22;;;-12.65;79.40
63819;BME280;49970;54.976;73.248;2023-02-18T15:46:00;101212.03;;;-12.66;79.50